Auburndale, Massachusetts
Current Conditions -  °F | °C
As of 8:54 AM on Thursday 27 Nov 2014 (Local Time) from KBOS Reporting Station
Broken Clouds Broken Clouds  
Wind Chill: 28°   Ceiling: 3000
Heat Index: 35°   Visibility: 10mi
Dew Point: 30°   Wind: 9mph
Humidity: 82%   Direction: 310°NW
Pressure: 29.93"   Gusts: NA
Location:  42.35°N, 70.95°W
Report Text: KBOS 271354Z 31008KT 10SM FEW014 BKN030 BKN085 02/M01 A2993 RMK AO2 SLP133 T00171011 $
Loading
Personal Weather Stations






























Interactive Weather Map New forecast layout! Learn more

10-Day Weather Forecast

Advertisements
Track Severe Weather on mobile